Latest Weather Observations for Mardie

IDW60801

Issued at 6:32 pm WST Sunday 19 April 2015 (issued every 30 minutes, with the page automatically refreshed every 10 minutes)

About weather observations | Map of weather stations | Latest weather observations for WA | Other Formats
Station Details ID: 005008 Name: MARDIE Lat: -21.19 Lon: 115.98 Height: 11.0 m
Data from the previous 72 hours. | See also: Recent months at Mardie
Date/Time
WST
Temp
°C
App
Temp
°C
Dew
Point
Rel
Hum
%
Delta-T
°C
Wind Press
QNH
hPa
Press
MSL
hPa
Rain
since 9 am
mm
Dir
 
Spd
km/h
Gust
km/h
Spd
kts
Gust
kts
19/06:30pm 21.5 20.6 19.8 90 1.1 ESE 24 32 13 17 1014.8 1014.8 3.2
19/06:00pm 21.7 21.4 19.6 88 1.3 E 20 26 11 14 1014.4 1014.4 3.2
19/05:30pm 21.9 18.6 19.3 85 1.7 E 35 44 19 24 1014.1 1014.1 3.2
19/05:00pm 22.4 20.2 19.6 84 1.8 E 30 41 16 22 1014.1 1014.1 3.2
19/04:30pm 22.7 20.2 19.7 83 1.9 ENE 32 44 17 24 1014.0 1014.0 3.2
19/04:00pm 22.8 21.2 20.0 84 1.8 E 28 39 15 21 1013.8 1013.8 3.2
19/03:30pm 22.5 21.1 20.4 88 1.4 E 28 37 15 20 1013.8 1013.8 3.2
19/03:00pm 22.1 20.9 20.9 93 0.8 E 28 39 15 21 1014.0 1014.0 3.2
19/02:30pm 21.2 20.6 21.2 100 0.0 E 26 33 14 18 1014.3 1014.3 3.2
19/02:00pm 20.9 20.9 20.9 100 0.0 E 22 30 12 16 1014.5 1014.5 3.0
19/01:30pm 20.7 20.2 20.7 100 0.0 E 24 32 13 17 1014.8 1014.8 2.6
19/01:00pm 20.3 20.4 20.3 100 0.0 E 20 28 11 15 1015.4 1015.4 2.4
19/12:30pm 20.2 20.2 20.2 100 0.0 E 20 30 11 16 1015.9 1015.9 2.2
19/12:00pm 19.9 19.6 19.6 98 0.2 ENE 20 30 11 16 1016.5 1016.5 1.6
19/11:30am 20.0 17.8 17.8 87 1.4 ENE 26 35 14 19 1017.0 1016.9 1.0
19/11:00am 20.9 19.2 19.0 89 1.2 ENE 26 37 14 20 1017.0 1016.9 0.6
19/10:30am 21.6 22.3 21.6 100 0.0 ENE 20 24 11 13 1017.1 1017.0 0.4
19/10:00am 21.5 23.5 21.5 100 0.0 ENE 13 17 7 9 1017.2 1017.1 0.2
19/09:30am 20.9 23.7 20.9 100 0.0 ENE 7 9 4 5 1017.0 1016.9 0.0
19/09:00am 20.5 23.1 20.5 100 0.0 E 7 9 4 5 1016.6 1016.6 4.0
19/08:30am 20.0 22.0 20.0 100 0.0 E 9 13 5 7 1016.4 1016.4 3.8
19/08:00am 19.6 20.7 19.6 100 0.0 E 13 15 7 8 1016.1 1016.1 3.6
19/07:30am 19.6 20.7 19.6 100 0.0 E 13 17 7 9 1016.2 1016.2 3.2
19/07:00am 19.6 20.7 19.6 100 0.0 E 13 17 7 9 1016.0 1016.0 3.0
19/06:30am 19.7 20.8 19.7 100 0.0 E 13 17 7 9 1015.7 1015.7 2.8
19/06:00am 19.8 22.1 19.8 100 0.0 ESE 7 13 4 7 1015.6 1015.6 2.6
19/05:30am 19.9 21.9 19.9 100 0.0 SE 9 11 5 6 1015.1 1015.1 2.2
19/05:00am 20.3 22.8 20.3 100 0.0 ENE 7 9 4 5 1014.6 1014.6 1.8
19/04:30am 20.4 22.2 20.4 100 0.0 ENE 11 13 6 7 1013.8 1013.8 1.6
19/04:00am 20.3 21.7 20.3 100 0.0 E 13 17 7 9 1013.4 1013.4 1.6
19/03:30am 20.4 21.8 20.4 100 0.0 ENE 13 15 7 8 1013.6 1013.6 1.6
19/03:00am 20.4 21.0 20.2 99 0.1 E 17 24 9 13 1013.7 1013.7 1.6
19/02:30am 20.6 20.1 19.9 96 0.4 E 22 28 12 15 1013.9 1013.9 1.6
19/02:00am 20.9 19.9 19.6 92 0.8 E 24 32 13 17 1014.0 1014.0 1.6
19/01:30am 20.9 20.8 19.9 94 0.6 E 20 26 11 14 1014.2 1014.2 1.6
19/01:00am 21.0 21.5 20.0 94 0.6 E 17 20 9 11 1014.5 1014.5 1.4
19/12:30am 21.0 21.0 20.2 95 0.5 ESE 20 24 11 13 1014.7 1014.7 1.4
19/12:00am 21.0 20.6 20.2 95 0.5 E 22 26 12 14 1015.0 1015.0 1.4
 
Date/Time
WST
Temp
°C
App
Temp
°C
Dew
Point
Rel
Hum
%
Delta-T
°C
Wind Press
QNH
hPa
Press
MSL
hPa
Rain
since 9 am
mm
Dir
 
Spd
km/h
Gust
km/h
Spd
kts
Gust
kts
18/11:30pm 21.1 21.2 19.9 93 0.8 E 19 26 10 14 1015.4 1015.4 1.2
18/11:00pm 21.3 20.6 19.6 90 1.1 E 22 28 12 15 1015.5 1015.5 1.2
18/10:30pm 21.6 19.9 19.0 85 1.6 ESE 26 32 14 17 1015.4 1015.4 1.2
18/10:00pm 21.7 21.0 19.4 87 1.5 ESE 22 32 12 17 1015.4 1015.4 1.2
18/09:30pm 21.7 20.9 20.0 90 1.1 ESE 24 32 13 17 1015.5 1015.5 1.2
18/09:00pm 21.9 21.5 20.2 90 1.1 ESE 22 32 12 17 1015.7 1015.7 1.0
18/08:30pm 22.3 22.8 20.8 91 1.0 ESE 19 28 10 15 1015.7 1015.7 0.8
18/08:00pm 22.4 24.1 21.6 95 0.5 ESE 15 20 8 11 1015.7 1015.7 0.8
18/07:30pm 22.6 24.3 22.4 99 0.1 SE 17 20 9 11 1015.4 1015.4 0.6
18/07:00pm 22.6 24.7 22.4 99 0.1 SE 15 19 8 10 1015.1 1015.1 0.6
18/06:30pm 22.9 24.5 21.5 92 0.9 SE 15 19 8 10 1014.9 1014.9 0.4
18/06:00pm 23.7 25.5 20.4 82 2.1 SSE 11 17 6 9 1014.5 1014.5 0.2
18/05:30pm 25.0 26.5 19.8 73 3.4 SE 11 15 6 8 1013.9 1013.9 0.0
18/05:00pm 25.3 26.3 19.4 70 3.8 SE 13 19 7 10 1013.4 1013.4 0.0
18/04:30pm 25.6 27.0 19.5 69 3.9 SE 11 17 6 9 1013.1 1013.1 0.0
18/04:00pm 25.8 26.1 19.7 69 3.9 SE 17 22 9 12 1012.7 1012.7 0.0
18/03:30pm 26.2 26.1 19.6 67 4.3 SE 19 26 10 14 1012.7 1012.7 0.0
18/03:00pm 26.6 27.8 20.0 67 4.3 SSE 13 19 7 10 1012.8 1012.8 0.0
18/02:30pm 26.4 26.4 19.8 67 4.3 SSE 19 22 10 12 1012.8 1012.8 0.0
18/02:00pm 26.9 26.8 19.5 64 4.8 SSE 19 24 10 13 1012.9 1012.9 0.0
18/01:30pm 26.4 26.3 19.5 66 4.5 SE 19 22 10 12 1013.3 1013.3 0.0
18/01:00pm 27.1 26.8 19.2 62 5.1 SE 19 24 10 13 1013.7 1013.7 0.0
18/12:30pm 27.3 27.4 19.9 64 4.8 SE 19 26 10 14 1014.0 1014.0 0.0
18/12:00pm 27.2 27.7 20.0 64 4.7 ESE 17 24 9 13 1014.4 1014.4 0.0
18/11:30am 27.2 28.1 20.8 68 4.2 ESE 17 26 9 14 1014.8 1014.8 0.0
18/11:00am 26.3 27.5 21.5 75 3.2 SE 17 22 9 12 1015.4 1015.4 0.0
18/10:30am 25.1 27.2 22.4 85 1.8 SSE 15 19 8 10 1015.6 1015.6 0.0
18/10:00am 24.4 26.5 22.5 89 1.3 SE 15 19 8 10 1015.9 1015.9 0.0
18/09:30am 24.4 28.0 23.7 96 0.5 SE 11 15 6 8 1016.1 1016.1 0.0
18/09:00am 23.4 26.4 23.4 100 0.0 SSE 13 17 7 9 1015.7 1015.7 15.0
18/08:30am 23.2 26.1 23.2 100 0.0 SSE 13 17 7 9 1015.5 1015.5 15.0
18/08:00am 22.9 26.8 22.9 100 0.0 SSE 7 13 4 7 1015.3 1015.3 15.0
18/07:30am 22.5 25.8 22.5 100 0.0 SSE 9 11 5 6 1014.7 1014.7 14.8
18/07:00am 22.4 24.9 22.4 100 0.0 SSE 13 19 7 10 1014.1 1014.1 14.8
18/06:30am 22.5 25.0 22.5 100 0.0 SSE 13 15 7 8 1014.0 1014.0 14.6
18/06:00am 22.4 24.5 22.4 100 0.0 S 15 20 8 11 1013.8 1013.8 14.4
18/05:30am 22.4 25.3 22.4 100 0.0 SSW 11 17 6 9 1014.1 1014.1 14.4
18/05:00am 22.3 25.1 22.3 100 0.0 SSW 11 15 6 8 1014.2 1014.2 14.4
18/04:30am 22.4 26.2 22.4 100 0.0 SSW 6 7 3 4 1014.2 1014.2 14.2
18/04:00am 22.4 26.0 22.4 100 0.0 SSW 7 9 4 5 1014.3 1014.3 13.8
18/03:30am 22.3 25.1 22.3 100 0.0 SW 11 15 6 8 1014.1 1014.1 13.6
18/03:00am 22.4 26.2 22.4 100 0.0 SE 6 9 3 5 1014.3 1014.3 13.4
18/02:30am 22.7 27.0 22.7 100 0.0 SE 4 6 2 3 1014.4 1014.4 12.6
18/02:00am 23.4 28.9 23.4 100 0.0 CALM 0 0 0 0 1014.5 1014.5 11.0
18/01:30am 23.2 27.4 22.4 95 0.5 SE 4 6 2 3 1014.3 1014.3 11.0
18/01:00am 23.4 25.9 21.7 90 1.1 ESE 11 15 6 8 1014.2 1014.2 11.0
18/12:30am 23.2 25.8 22.0 93 0.8 SE 11 13 6 7 1014.3 1014.3 11.0
18/12:00am 23.3 26.6 22.5 95 0.5 ESE 9 13 5 7 1014.5 1014.5 11.0
 
Date/Time
WST
Temp
°C
App
Temp
°C
Dew
Point
Rel
Hum
%
Delta-T
°C
Wind Press
QNH
hPa
Press
MSL
hPa
Rain
since 9 am
mm
Dir
 
Spd
km/h
Gust
km/h
Spd
kts
Gust
kts
17/11:30pm 23.3 26.6 22.6 96 0.5 ESE 9 13 5 7 1014.7 1014.7 11.0
17/11:00pm 23.3 25.4 21.7 91 1.1 SE 13 17 7 9 1014.8 1014.8 11.0
17/10:30pm 23.5 24.6 21.9 91 1.1 SE 19 24 10 13 1014.6 1014.6 11.0
17/10:00pm 23.7 24.6 22.0 90 1.1 SE 20 24 11 13 1014.7 1014.7 11.0
17/09:30pm 23.7 26.9 23.7 100 0.0 SE 13 19 7 10 1015.1 1015.1 11.0
17/09:00pm 23.8 27.1 23.8 100 0.0 ESE 13 17 7 9 1015.0 1015.0 11.0
17/08:30pm 24.1 26.4 24.1 100 0.0 ESE 19 22 10 12 1014.9 1014.9 11.0
17/08:00pm 24.2 28.1 24.2 100 0.0 SE 11 13 6 7 1015.2 1015.2 11.0
17/07:30pm 24.0 28.1 24.0 100 0.0 SE 9 13 5 7 1015.1 1015.1 11.0
17/07:00pm 24.3 29.2 24.3 100 0.0 WSW 6 6 3 3 1015.1 1015.1 10.8
17/06:30pm 24.4 29.3 24.4 100 0.0 WSW 6 7 3 4 1014.6 1014.6 9.8
17/06:00pm 24.3 29.9 24.3 100 0.0 WSW 2 6 1 3 1014.2 1014.2 9.2
17/05:30pm 24.8 30.8 24.8 100 0.0 WSW 2 6 1 3 1013.9 1013.9 8.0
17/05:00pm 25.0 30.7 25.0 100 0.0 WNW 4 7 2 4 1013.5 1013.5 8.0
17/04:30pm 24.9 30.5 24.9 100 0.0 WNW 4 7 2 4 1013.2 1013.2 7.8
17/04:00pm 25.5 28.9 24.1 92 1.0 W 13 19 7 10 1013.2 1013.2 5.4
17/03:30pm 26.7 29.5 20.8 70 3.9 ESE 7 11 4 6 1012.5 1012.5 3.0
17/03:00pm 28.6 31.8 20.6 62 5.3 NE 4 11 2 6 1012.2 1012.2 0.0
17/02:30pm 30.2 30.7 18.3 49 7.6 NNE 13 17 7 9 1012.2 1012.2 0.0
17/02:00pm 30.3 32.0 18.4 49 7.7 N 7 13 4 7 1012.3 1012.3 0.0
17/01:30pm 31.1 31.4 17.8 45 8.5 N 13 19 7 10 1012.6 1012.6 0.0
17/01:00pm 31.7 32.9 16.8 40 9.4 NNE 6 15 3 8 1012.7 1012.7 0.0
17/12:30pm 31.3 32.3 16.9 42 9.1 NE 7 13 4 7 1013.0 1013.0 0.0
17/12:00pm 30.8 31.5 17.1 43 8.7 ENE 9 15 5 8 1013.4 1013.4 0.0
17/11:30am 30.8 31.7 18.5 47 7.9 ENE 11 17 6 9 1013.9 1013.9 0.0
17/11:00am 30.4 31.6 18.2 48 7.8 ENE 9 13 5 7 1014.4 1014.4 0.0
17/10:30am 30.0 31.2 19.1 52 7.1 ENE 11 17 6 9 1014.7 1014.7 0.0
17/10:00am 29.0 30.3 19.3 55 6.3 E 11 15 6 8 1015.0 1015.0 0.0
17/09:30am 28.5 31.3 20.8 63 5.1 E 7 9 4 5 1015.2 1015.2 0.0
17/09:00am 28.3 29.8 18.1 54 6.5 SE 7 9 4 5 1015.3 1015.3 0.4
17/08:30am 27.4 31.0 22.1 73 3.6 SE 6 7 3 4 1015.1 1015.1 0.4
17/08:00am 25.9 30.6 24.9 94 0.7 SE 9 13 5 7 1014.8 1014.8 0.4
17/07:30am 25.1 30.5 25.1 100 0.0 WNW 6 7 3 4 1015.2 1015.2 0.4
17/07:00am 25.1 30.5 25.1 100 0.0 SE 6 7 3 4 1014.8 1014.8 0.4
17/06:30am 25.0 29.7 25.0 100 0.0 SE 9 13 5 7 1013.9 1013.9 0.4
17/06:00am 25.3 31.2 25.3 100 0.0 E 4 6 2 3 1014.4 1014.4 0.4
17/05:30am 25.5 31.9 25.5 100 0.0 E 2 4 1 2 1014.2 1014.2 0.4
17/05:00am 25.1 30.5 25.1 100 0.0 SSE 6 11 3 6 1013.6 1013.6 0.4
17/04:30am 25.3 30.6 25.3 100 0.0 SE 7 9 4 5 1013.5 1013.5 0.4
17/04:00am 25.4 31.3 25.4 100 0.0 SE 4 6 2 3 1013.6 1013.6 0.2
17/03:30am 25.7 32.2 25.0 96 0.5 CALM 0 0 0 0 1013.4 1013.4 0.0
17/03:00am 25.8 30.7 24.4 92 1.0 SE 6 7 3 4 1013.4 1013.4 0.0
17/02:30am 26.0 30.7 25.0 94 0.7 E 9 11 5 6 1013.4 1013.4 0.0
17/02:00am 26.0 31.6 24.8 93 0.8 SSW 4 6 2 3 1013.7 1013.7 0.0
17/01:30am 26.3 32.1 24.0 87 1.6 CALM 0 6 0 3 1013.7 1013.7 0.0
17/01:00am 26.4 30.6 23.5 84 2.0 SW 7 9 4 5 1014.0 1014.0 0.0
17/12:30am 26.6 30.2 22.4 78 2.8 SW 7 9 4 5 1014.5 1014.5 0.0
17/12:00am 27.0 30.7 21.5 72 3.7 N 4 7 2 4 1014.8 1014.8 0.0
 
Date/Time
WST
Temp
°C
App
Temp
°C
Dew
Point
Rel
Hum
%
Delta-T
°C
Wind Press
QNH
hPa
Press
MSL
hPa
Rain
since 9 am
mm
Dir
 
Spd
km/h
Gust
km/h
Spd
kts
Gust
kts
16/11:30pm 27.3 31.3 21.3 69 4.0 WSW 2 4 1 2 1014.8 1014.8 0.0
16/11:00pm 27.8 31.9 21.6 69 4.1 WSW 2 6 1 3 1015.0 1015.0 0.0
16/10:30pm 27.7 32.2 21.5 69 4.1 CALM 0 0 0 0 1015.3 1015.3 0.0
16/10:00pm 27.6 32.1 21.6 70 4.0 CALM 0 2 0 1 1015.1 1015.1 0.0
16/09:30pm 27.7 32.3 21.7 70 4.0 CALM 0 0 0 0 1014.9 1014.9 0.0
16/09:00pm 27.6 31.2 21.2 68 4.3 NW 4 6 2 3 1015.0 1015.0 0.0
16/08:30pm 27.9 31.1 21.2 67 4.5 NW 6 7 3 4 1014.8 1014.8 0.0
16/08:00pm 28.0 31.1 21.1 66 4.6 NNW 6 7 3 4 1014.8 1014.8 0.0
16/07:30pm 28.1 31.1 20.9 65 4.8 NW 6 9 3 5 1014.5 1014.5 0.0
16/07:00pm 28.4 31.5 20.2 61 5.4 WNW 4 6 2 3 1014.1 1014.1 0.0

Other Formats:

Comma delimited format used in spreadsheet applications
http://www.bom.gov.au/fwo/IDW60801/IDW60801.94306.axf

JavaScript Object Notation format (JSON) in row-major order
http://www.bom.gov.au/fwo/IDW60801/IDW60801.94306.json